Time;durP1;ratioP1;P1;durP2;ratioP2;P2;SDS_P1;SDS_P2;PMS_P1;PMS_P2;Temp;Humidity;BMP_temperature;BMP_pressure;BME280_temperature;BME280_humidity;BME280_pressure;Samples;Min_cycle;Max_cycle;Signal;HPM_P1;HPM_P2
2023/11/09 00:00:57;;;;;;;2.88;0.80;;;18.70;63.80;;;;;;6182490;23;20149;-80
2023/11/09 00:03:27;;;;;;;4.22;0.90;;;18.70;63.90;;;;;;6181690;23;20584;-80
2023/11/09 00:06:01;;;;;;;5.45;1.10;;;18.70;64.00;;;;;;6157434;23;20184;-80
2023/11/09 00:08:30;;;;;;;6.10;0.77;;;18.70;64.00;;;;;;6157307;23;20157;-80
2023/11/09 00:11:02;;;;;;;3.25;0.80;;;18.70;64.10;;;;;;6106129;23;20167;-80
2023/11/09 00:13:34;;;;;;;3.28;0.90;;;18.70;64.00;;;;;;6181047;23;20156;-81
2023/11/09 00:16:04;;;;;;;2.70;0.80;;;18.60;63.90;;;;;;6181232;23;20232;-80
2023/11/09 00:18:31;;;;;;;1.13;0.65;;;18.60;63.90;;;;;;6156492;23;20159;-80
2023/11/09 00:20:58;;;;;;;5.55;0.82;;;18.70;64.10;;;;;;6106592;23;20141;-80
2023/11/09 00:23:25;;;;;;;3.53;0.70;;;18.70;64.00;;;;;;6206984;23;20172;-81
2023/11/09 00:25:54;;;;;;;4.93;1.00;;;18.70;63.90;;;;;;6181709;23;20189;-80
2023/11/09 00:28:20;;;;;;;3.92;0.95;;;18.60;64.00;;;;;;6181885;23;20177;-80
2023/11/09 00:30:46;;;;;;;4.07;0.70;;;18.60;64.10;;;;;;6208703;23;20494;-80
2023/11/09 00:33:12;;;;;;;4.65;0.90;;;18.70;64.20;;;;;;6107231;23;20141;-80
2023/11/09 00:35:39;;;;;;;7.68;1.42;;;18.60;64.80;;;;;;6208696;23;20629;-80
2023/11/09 00:38:06;;;;;;;1.73;1.00;;;18.60;63.90;;;;;;6207121;23;20129;-81
2023/11/09 00:40:32;;;;;;;2.78;0.80;;;18.60;64.00;;;;;;6107908;23;20140;-80
2023/11/09 00:43:02;;;;;;;3.83;0.73;;;18.60;64.30;;;;;;6106968;23;20133;-80
2023/11/09 00:45:28;;;;;;;3.35;0.80;;;18.60;64.30;;;;;;6134417;23;20160;-80
2023/11/09 00:47:53;;;;;;;3.67;0.90;;;18.60;64.30;;;;;;6107835;23;20167;-80
2023/11/09 00:50:19;;;;;;;4.10;1.02;;;18.60;64.20;;;;;;6210078;23;20148;-80
2023/11/09 00:52:45;;;;;;;4.90;1.10;;;18.60;64.10;;;;;;6107657;23;20579;-80
2023/11/09 00:55:10;;;;;;;2.45;0.82;;;18.60;64.10;;;;;;6183965;23;20657;-80
2023/11/09 00:57:41;;;;;;;4.30;0.90;;;18.60;64.20;;;;;;6209478;23;20144;-80
2023/11/09 01:00:12;;;;;;;5.38;1.00;;;18.60;64.30;;;;;;6183157;23;20210;-81
2023/11/09 01:02:48;;;;;;;1.77;0.65;;;18.60;64.30;;;;;;6158381;23;20160;-81
2023/11/09 01:05:14;;;;;;;1.70;0.60;;;18.50;64.40;;;;;;6180538;23;20240;-80
2023/11/09 01:07:46;;;;;;;5.60;1.08;;;18.60;64.30;;;;;;6108218;23;20133;-80
2023/11/09 01:10:12;;;;;;;2.13;1.00;;;18.60;64.30;;;;;;6183137;23;20231;-80
2023/11/09 01:12:44;;;;;;;4.78;0.70;;;18.60;64.30;;;;;;6107473;23;20224;-80
2023/11/09 01:15:11;;;;;;;2.08;0.80;;;18.60;64.40;;;;;;6107455;23;20137;-80
2023/11/09 01:17:41;;;;;;;3.85;0.85;;;18.60;64.20;;;;;;6106956;23;20156;-81
2023/11/09 01:20:08;;;;;;;1.58;0.73;;;18.60;64.30;;;;;;6107198;23;20136;-80
2023/11/09 01:22:34;;;;;;;3.28;1.02;;;18.60;64.40;;;;;;6208773;23;20149;-80
2023/11/09 01:25:01;;;;;;;2.35;0.70;;;18.60;64.40;;;;;;6228842;23;20213;-82
2023/11/09 01:27:26;;;;;;;3.90;0.85;;;18.60;64.40;;;;;;6204932;23;20177;-82
2023/11/09 01:29:55;;;;;;;3.45;0.95;;;18.60;64.30;;;;;;6231354;23;20146;-80
2023/11/09 01:32:23;;;;;;;3.97;0.75;;;18.60;64.30;;;;;;6230949;23;20169;-80
2023/11/09 01:34:49;;;;;;;3.33;1.13;;;18.60;64.20;;;;;;6230682;23;20221;-80
2023/11/09 01:37:15;;;;;;;2.22;0.73;;;18.60;64.20;;;;;;6231071;23;20161;-81
2023/11/09 01:39:40;;;;;;;1.10;0.70;;;18.60;64.10;;;;;;6230656;23;20146;-80
2023/11/09 01:42:10;;;;;;;1.13;0.63;;;18.60;64.40;;;;;;6204442;23;20146;-81
2023/11/09 01:44:36;;;;;;;3.45;0.85;;;18.60;64.40;;;;;;6229552;23;20154;-79
2023/11/09 01:47:03;;;;;;;2.72;0.90;;;18.60;64.30;;;;;;6231543;23;20162;-79
2023/11/09 01:49:30;;;;;;;4.07;1.25;;;18.60;64.50;;;;;;6230648;23;20141;-80
2023/11/09 01:51:58;;;;;;;4.32;0.85;;;18.60;64.40;;;;;;6230500;23;20504;-80
2023/11/09 01:54:23;;;;;;;4.07;1.20;;;18.50;64.30;;;;;;6153494;23;20157;-80
2023/11/09 01:56:49;;;;;;;2.92;0.95;;;18.50;64.30;;;;;;6230268;23;20157;-79
2023/11/09 01:59:16;;;;;;;8.32;1.20;;;18.60;64.40;;;;;;6231068;23;20134;-80
2023/11/09 02:01:44;;;;;;;2.83;0.77;;;18.60;64.30;;;;;;6204536;23;20145;-80
2023/11/09 02:04:10;;;;;;;1.83;0.77;;;18.60;64.10;;;;;;6204763;23;20133;-80
2023/11/09 02:06:42;;;;;;;2.33;0.80;;;18.60;64.20;;;;;;6229413;23;20138;-82
2023/11/09 02:09:08;;;;;;;1.73;0.65;;;18.60;64.30;;;;;;6203342;23;20154;-80
2023/11/09 02:11:34;;;;;;;2.20;1.05;;;18.60;64.20;;;;;;6229089;23;20138;-79
2023/11/09 02:14:01;;;;;;;4.47;0.70;;;18.60;64.10;;;;;;6230147;23;20139;-80
2023/11/09 02:16:27;;;;;;;2.33;0.70;;;18.60;64.10;;;;;;6230136;23;20162;-80
2023/11/09 02:18:53;;;;;;;2.50;0.68;;;18.60;64.00;;;;;;6227847;23;20466;-80
2023/11/09 02:21:23;;;;;;;2.55;0.80;;;18.60;64.10;;;;;;6203587;23;20214;-80
2023/11/09 02:23:51;;;;;;;1.77;0.90;;;18.60;64.10;;;;;;6203598;23;20159;-80
2023/11/09 02:26:22;;;;;;;4.47;0.90;;;18.60;64.00;;;;;;6078826;23;20150;-80
2023/11/09 02:28:51;;;;;;;2.95;1.10;;;18.60;64.00;;;;;;6178036;23;20165;-80
2023/11/09 02:31:24;;;;;;;3.45;0.90;;;18.50;64.30;;;;;;6078072;23;20142;-80
2023/11/09 02:33:55;;;;;;;1.55;0.70;;;18.50;64.40;;;;;;6152994;23;20165;-80
2023/11/09 02:36:22;;;;;;;2.25;0.70;;;18.50;64.30;;;;;;6152192;23;20509;-80
2023/11/09 02:38:49;;;;;;;2.22;0.70;;;18.50;64.40;;;;;;6029379;23;20145;-80
2023/11/09 02:41:16;;;;;;;2.65;0.60;;;18.50;64.10;;;;;;6028885;23;20152;-80
2023/11/09 02:43:43;;;;;;;2.40;1.25;;;18.50;64.10;;;;;;6028599;23;20161;-81
2023/11/09 02:46:11;;;;;;;1.58;0.80;;;18.60;64.10;;;;;;6052859;23;20140;-81
2023/11/09 02:48:37;;;;;;;1.60;0.70;;;18.60;64.40;;;;;;6030223;23;20134;-80
2023/11/09 02:51:05;;;;;;;1.27;0.80;;;18.60;64.40;;;;;;6028607;23;20149;-80
2023/11/09 02:53:32;;;;;;;2.10;0.80;;;18.50;64.30;;;;;;6052546;23;20233;-80
2023/11/09 02:55:59;;;;;;;4.00;0.80;;;18.60;64.10;;;;;;6076885;23;20228;-81
2023/11/09 02:58:29;;;;;;;1.40;0.80;;;18.60;64.40;;;;;;6053218;23;20138;-79
2023/11/09 03:00:54;;;;;;;1.60;0.63;;;18.50;64.40;;;;;;6053150;23;20480;-80
2023/11/09 03:03:22;;;;;;;1.98;0.82;;;18.50;64.30;;;;;;6053715;23;20133;-80
2023/11/09 03:05:53;;;;;;;3.28;0.70;;;18.50;64.40;;;;;;6029522;23;20203;-80
2023/11/09 03:08:20;;;;;;;3.03;0.70;;;18.50;64.40;;;;;;6028805;23;20171;-80
2023/11/09 03:10:51;;;;;;;1.88;0.80;;;18.50;64.40;;;;;;6077509;23;20225;-81
2023/11/09 03:13:19;;;;;;;1.95;0.55;;;18.50;64.30;;;;;;6052471;23;20148;-80
2023/11/09 03:15:47;;;;;;;3.55;0.90;;;18.50;64.30;;;;;;6052121;23;20177;-80
2023/11/09 03:18:12;;;;;;;1.83;0.80;;;18.60;64.40;;;;;;6029212;23;20153;-80
2023/11/09 03:20:44;;;;;;;5.30;0.80;;;18.50;64.40;;;;;;6029195;23;20137;-80
2023/11/09 03:23:09;;;;;;;2.08;0.82;;;18.50;64.40;;;;;;6151259;23;20153;-81
2023/11/09 03:25:38;;;;;;;2.30;0.90;;;18.50;64.30;;;;;;6152242;23;20209;-80
2023/11/09 03:28:13;;;;;;;3.65;0.80;;;18.50;64.40;;;;;;6204476;23;20169;-80
2023/11/09 03:30:40;;;;;;;4.10;1.00;;;18.50;64.50;;;;;;6153350;23;20173;-80
2023/11/09 03:33:07;;;;;;;1.50;0.70;;;18.50;64.40;;;;;;6228969;23;20221;-80
2023/11/09 03:35:37;;;;;;;2.60;0.90;;;18.50;64.40;;;;;;6203143;23;20169;-80
2023/11/09 03:38:07;;;;;;;3.65;1.00;;;18.50;64.40;;;;;;6203148;23;20138;-81
2023/11/09 03:40:35;;;;;;;3.50;0.90;;;18.50;64.40;;;;;;6227607;23;20142;-80
2023/11/09 03:43:01;;;;;;;2.70;0.70;;;18.50;64.20;;;;;;6202951;23;20138;-79
2023/11/09 03:45:27;;;;;;;3.65;1.13;;;18.50;64.40;;;;;;6203416;23;20141;-80
2023/11/09 03:47:58;;;;;;;2.58;0.75;;;18.50;64.40;;;;;;6227937;23;20132;-80
2023/11/09 03:50:24;;;;;;;1.20;0.70;;;18.50;64.30;;;;;;6229268;23;20137;-80
2023/11/09 03:52:53;;;;;;;3.03;0.63;;;18.50;64.30;;;;;;6229649;23;20135;-80
2023/11/09 03:55:23;;;;;;;1.92;0.73;;;18.50;65.20;;;;;;6202993;23;20153;-80
2023/11/09 03:57:50;;;;;;;1.50;0.52;;;18.50;64.40;;;;;;6230486;23;20153;-80
2023/11/09 04:00:18;;;;;;;2.15;0.90;;;18.50;64.50;;;;;;6229384;23;20134;-79
2023/11/09 04:02:45;;;;;;;2.42;0.60;;;18.50;64.50;;;;;;6228367;23;20130;-80
2023/11/09 04:05:11;;;;;;;3.05;0.77;;;18.50;64.70;;;;;;6231525;23;20204;-81
2023/11/09 04:07:43;;;;;;;1.95;0.80;;;18.50;64.50;;;;;;6231911;23;20218;-81
2023/11/09 04:10:12;;;;;;;2.67;0.80;;;18.50;65.30;;;;;;6179828;23;20161;-80
2023/11/09 04:12:44;;;;;;;0.95;0.63;;;18.50;64.50;;;;;;6232426;23;20131;-80
2023/11/09 04:15:10;;;;;;;0.60;0.60;;;18.50;64.30;;;;;;6179563;23;20154;-80
2023/11/09 04:17:36;;;;;;;2.97;0.80;;;18.50;64.30;;;;;;6204950;23;20138;-80
2023/11/09 04:20:03;;;;;;;1.42;0.80;;;18.50;64.30;;;;;;6180230;23;20588;-79
2023/11/09 04:22:31;;;;;;;2.75;0.90;;;18.40;64.30;;;;;;6204866;23;20165;-81
2023/11/09 04:24:56;;;;;;;2.30;0.60;;;18.50;64.30;;;;;;6229811;23;20185;-80
2023/11/09 04:27:22;;;;;;;1.52;0.77;;;18.50;64.30;;;;;;6231541;23;20220;-80
2023/11/09 04:29:52;;;;;;;1.35;0.60;;;18.50;64.20;;;;;;6231436;23;20149;-80
2023/11/09 04:32:18;;;;;;;1.55;0.80;;;18.50;64.30;;;;;;6203786;23;20154;-80
2023/11/09 04:34:45;;;;;;;1.77;0.80;;;18.50;64.30;;;;;;6231301;23;20141;-80
2023/11/09 04:37:14;;;;;;;3.38;0.95;;;18.50;64.30;;;;;;6230207;23;20162;-80
2023/11/09 04:39:46;;;;;;;0.70;0.63;;;18.50;64.30;;;;;;6181165;23;20138;-79
2023/11/09 04:42:23;;;;;;;2.60;0.85;;;18.50;64.50;;;;;;6205522;23;20146;-79
2023/11/09 04:44:53;;;;;;;3.90;0.80;;;18.50;64.40;;;;;;6229983;23;20197;-80
2023/11/09 04:47:25;;;;;;;3.05;1.08;;;18.40;64.60;;;;;;6230526;23;20142;-79
2023/11/09 04:49:58;;;;;;;1.55;0.65;;;18.40;64.50;;;;;;6183145;23;20145;-80
2023/11/09 04:52:32;;;;;;;0.73;0.70;;;18.40;64.50;;;;;;6184370;23;20146;-81
2023/11/09 05:08:34;;;;;;;2.17;0.80;;;18.40;64.30;;;;;;6230803;23;20138;-80
2023/11/09 05:11:03;;;;;;;1.90;0.90;;;18.40;64.60;;;;;;6155053;23;20181;-80
2023/11/09 05:13:29;;;;;;;1.85;0.65;;;18.40;64.50;;;;;;6205598;23;20163;-81
2023/11/09 05:15:55;;;;;;;1.95;0.88;;;18.40;64.50;;;;;;6229896;23;20185;-80
2023/11/09 05:18:29;;;;;;;1.85;0.70;;;18.40;64.60;;;;;;6229915;23;20131;-79
2023/11/09 05:20:55;;;;;;;2.42;1.08;;;18.40;64.40;;;;;;6204555;23;20176;-81
2023/11/09 05:23:21;;;;;;;1.13;0.68;;;18.40;64.70;;;;;;6230821;23;20131;-80
2023/11/09 05:25:50;;;;;;;2.10;0.80;;;18.40;64.50;;;;;;6133482;23;20211;-79
2023/11/09 05:28:17;;;;;;;1.88;1.00;;;18.40;64.60;;;;;;6108067;23;20216;-79
2023/11/09 05:30:43;;;;;;;1.95;0.70;;;18.40;64.60;;;;;;6108225;23;20143;-79
2023/11/09 05:33:11;;;;;;;1.02;0.60;;;18.40;64.50;;;;;;6108068;23;20149;-80
2023/11/09 05:35:42;;;;;;;1.00;0.70;;;18.40;64.80;;;;;;6107168;23;20180;-79
2023/11/09 05:38:08;;;;;;;2.47;0.70;;;18.40;64.60;;;;;;6183731;23;20153;-79
2023/11/09 05:40:34;;;;;;;1.30;0.77;;;18.40;64.70;;;;;;6108081;23;20171;-79
2023/11/09 05:42:59;;;;;;;0.75;0.73;;;18.30;64.50;;;;;;6108416;23;20153;-79
2023/11/09 05:45:26;;;;;;;1.55;0.80;;;18.40;64.50;;;;;;6108824;23;20591;-79
2023/11/09 05:47:56;;;;;;;1.10;0.60;;;18.40;64.60;;;;;;6108342;23;20133;-79
2023/11/09 05:50:23;;;;;;;1.55;0.82;;;18.40;64.50;;;;;;6158827;23;20152;-80
2023/11/09 05:52:49;;;;;;;1.38;0.70;;;18.40;64.40;;;;;;6209756;23;20140;-80
2023/11/09 05:55:14;;;;;;;2.05;0.90;;;18.40;64.50;;;;;;6184225;23;20133;-79
2023/11/09 05:57:40;;;;;;;2.30;0.80;;;18.50;64.70;;;;;;6184195;23;20176;-79
2023/11/09 06:00:08;;;;;;;1.50;0.73;;;18.30;64.70;;;;;;6159331;23;20153;-80
2023/11/09 06:02:38;;;;;;;2.92;0.70;;;18.40;64.60;;;;;;6208724;23;20136;-80
2023/11/09 06:05:04;;;;;;;2.10;0.80;;;18.40;64.90;;;;;;6183837;23;20153;-80
2023/11/09 06:07:30;;;;;;;2.00;0.93;;;18.30;64.70;;;;;;6208204;23;20148;-79
2023/11/09 06:09:59;;;;;;;1.83;0.80;;;18.40;64.80;;;;;;6209103;23;20133;-79
2023/11/09 06:12:25;;;;;;;5.28;0.80;;;18.40;64.80;;;;;;6158703;23;20156;-79
2023/11/09 06:14:50;;;;;;;1.55;0.70;;;18.40;64.80;;;;;;6209270;23;20161;-79
2023/11/09 06:17:18;;;;;;;1.17;0.60;;;18.30;64.60;;;;;;6107871;23;20601;-80
2023/11/09 06:19:48;;;;;;;1.50;0.82;;;18.40;64.70;;;;;;6107507;23;20137;-80
2023/11/09 06:22:17;;;;;;;2.85;0.80;;;18.40;64.60;;;;;;6158478;23;20157;-79
2023/11/09 06:24:43;;;;;;;1.67;0.80;;;18.30;64.80;;;;;;6134361;23;20528;-80
2023/11/09 06:27:09;;;;;;;1.50;0.80;;;18.30;64.90;;;;;;6207912;23;20478;-80
2023/11/09 06:29:39;;;;;;;2.35;1.27;;;18.30;64.90;;;;;;6209957;23;20172;-79
2023/11/09 06:32:05;;;;;;;0.95;0.80;;;18.30;64.80;;;;;;6158740;23;20212;-79
2023/11/09 06:34:31;;;;;;;2.97;1.00;;;18.30;64.90;;;;;;6209431;23;20140;-79
2023/11/09 06:37:00;;;;;;;1.75;0.73;;;18.30;64.80;;;;;;6107318;23;20173;-80
2023/11/09 06:39:31;;;;;;;0.98;0.60;;;18.30;64.60;;;;;;6133425;23;20631;-80
2023/11/09 06:41:57;;;;;;;0.80;0.60;;;18.30;64.70;;;;;;6158113;23;20156;-79
2023/11/09 06:44:28;;;;;;;2.28;0.65;;;18.40;64.40;;;;;;6107381;23;20187;-79
2023/11/09 06:46:54;;;;;;;1.45;0.85;;;18.30;64.50;;;;;;6184256;23;20157;-80
2023/11/09 06:49:22;;;;;;;2.90;0.70;;;18.30;64.70;;;;;;6184205;23;20149;-79
2023/11/09 06:51:48;;;;;;;1.10;0.50;;;18.30;64.70;;;;;;6159060;23;20160;-79
2023/11/09 06:54:15;;;;;;;1.58;0.80;;;18.30;64.90;;;;;;6184256;23;20212;-80
2023/11/09 06:56:41;;;;;;;2.55;0.90;;;18.30;64.60;;;;;;6183897;23;20187;-79
2023/11/09 06:59:09;;;;;;;0.98;0.60;;;18.40;64.90;;;;;;6183866;23;20133;-79
2023/11/09 07:01:35;;;;;;;2.90;0.75;;;18.30;65.00;;;;;;6207660;23;20568;-79
2023/11/09 07:04:00;;;;;;;3.20;0.70;;;18.30;64.90;;;;;;6205361;23;20449;-82
2023/11/09 07:06:31;;;;;;;0.98;0.63;;;18.30;65.00;;;;;;6099417;23;20148;-83
2023/11/09 07:08:57;;;;;;;2.60;0.68;;;18.30;64.60;;;;;;6173972;23;20160;-82
2023/11/09 07:11:23;;;;;;;2.28;0.63;;;18.30;64.40;;;;;;6197899;23;20148;-83
2023/11/09 07:13:48;;;;;;;2.25;0.80;;;18.20;64.20;;;;;;6197612;23;20182;-81
2023/11/09 07:16:16;;;;;;;2.28;0.80;;;18.30;64.20;;;;;;6197400;23;20507;-83
2023/11/09 07:18:43;;;;;;;3.92;0.80;;;18.40;64.20;;;;;;6196843;23;20522;-82
2023/11/09 07:21:09;;;;;;;1.27;0.80;;;18.40;64.00;;;;;;6195445;23;20133;-80
2023/11/09 07:23:37;;;;;;;1.40;0.60;;;18.40;64.10;;;;;;6099920;23;20687;-81
2023/11/09 07:26:02;;;;;;;2.80;0.70;;;18.50;64.10;;;;;;6200105;23;20219;-80
2023/11/09 07:28:29;;;;;;;2.00;0.60;;;18.40;64.00;;;;;;6201183;23;20137;-81
2023/11/09 07:30:54;;;;;;;1.10;0.68;;;18.50;64.00;;;;;;6201664;23;20212;-81
2023/11/09 07:33:21;;;;;;;2.38;0.73;;;18.40;64.00;;;;;;6201402;23;20136;-80
2023/11/09 07:35:46;;;;;;;1.98;0.50;;;18.50;64.00;;;;;;6100340;23;20175;-80
2023/11/09 07:38:14;;;;;;;0.85;0.68;;;18.40;63.70;;;;;;6149838;23;20184;-81
2023/11/09 07:40:41;;;;;;;1.23;0.60;;;18.40;63.90;;;;;;6200228;23;20156;-81
2023/11/09 07:43:08;;;;;;;1.27;0.60;;;18.50;63.10;;;;;;6198088;23;20141;-80
2023/11/09 07:45:34;;;;;;;1.25;0.70;;;18.50;62.60;;;;;;6099533;23;20141;-80
2023/11/09 07:48:00;;;;;;;1.45;0.60;;;18.40;63.00;;;;;;6199496;23;20197;-82
2023/11/09 07:50:26;;;;;;;1.13;0.60;;;18.50;63.30;;;;;;6198912;23;20133;-82
2023/11/09 07:52:52;;;;;;;2.55;0.60;;;18.50;63.80;;;;;;6199835;23;20558;-82
2023/11/09 07:55:19;;;;;;;1.08;0.80;;;18.50;63.00;;;;;;6199364;23;20207;-81
2023/11/09 07:57:46;;;;;;;0.80;0.52;;;18.50;63.30;;;;;;6201142;23;20133;-81
2023/11/09 08:00:13;;;;;;;0.90;0.60;;;18.50;63.00;;;;;;6200342;23;20153;-81
2023/11/09 08:02:38;;;;;;;0.77;0.68;;;18.50;63.10;;;;;;6199540;23;20141;-81
2023/11/09 08:05:06;;;;;;;2.17;0.60;;;18.50;63.40;;;;;;6099238;23;20448;-81
2023/11/09 08:07:33;;;;;;;1.50;0.57;;;18.50;63.10;;;;;;6099948;23;20133;-82
2023/11/09 08:10:03;;;;;;;1.85;0.68;;;18.60;62.70;;;;;;6099457;23;20172;-80
2023/11/09 08:12:33;;;;;;;1.48;0.60;;;18.60;62.30;;;;;;6153165;23;20191;-80
2023/11/09 08:14:59;;;;;;;0.50;0.50;;;18.60;62.90;;;;;;6204792;23;20144;-80
2023/11/09 08:17:25;;;;;;;1.38;0.68;;;18.60;63.50;;;;;;6180003;23;20180;-81
2023/11/09 08:19:52;;;;;;;3.22;0.73;;;18.50;63.60;;;;;;6199818;23;20138;-81
2023/11/09 08:22:19;;;;;;;1.40;0.57;;;18.50;64.40;;;;;;6100214;23;20157;-82
2023/11/09 08:24:44;;;;;;;1.70;0.60;;;18.50;63.40;;;;;;6099499;23;20191;-82
2023/11/09 08:27:11;;;;;;;1.60;0.77;;;18.50;63.40;;;;;;6200499;23;20156;-81
2023/11/09 08:29:38;;;;;;;1.45;0.68;;;18.50;63.40;;;;;;6200154;23;20133;-81
2023/11/09 08:32:10;;;;;;;2.50;0.65;;;18.50;63.20;;;;;;6201619;23;20137;-82
2023/11/09 08:34:36;;;;;;;1.85;0.70;;;18.50;63.20;;;;;;6151246;23;20161;-81
2023/11/09 08:37:10;;;;;;;1.13;0.65;;;18.50;64.30;;;;;;6101374;23;20259;-82
2023/11/09 08:39:41;;;;;;;1.05;0.73;;;18.50;62.90;;;;;;6176091;23;20153;-82
2023/11/09 08:42:07;;;;;;;1.08;0.80;;;18.60;62.50;;;;;;6177446;23;20161;-83
2023/11/09 08:44:36;;;;;;;0.85;0.47;;;18.60;62.20;;;;;;6176024;23;20173;-82
2023/11/09 08:47:02;;;;;;;1.73;0.60;;;18.60;62.50;;;;;;6197008;23;20529;-84
2023/11/09 08:49:32;;;;;;;1.75;0.60;;;18.60;62.30;;;;;;6173569;23;20145;-81
2023/11/09 08:52:04;;;;;;;2.15;0.70;;;18.60;62.20;;;;;;6150398;23;20492;-83
2023/11/09 08:54:31;;;;;;;0.95;0.68;;;18.70;61.80;;;;;;6193970;23;20212;-83
2023/11/09 08:56:57;;;;;;;1.10;0.68;;;18.70;62.00;;;;;;6201179;23;20204;-81
2023/11/09 08:59:24;;;;;;;2.03;0.50;;;18.70;62.50;;;;;;6202604;23;20534;-81
2023/11/09 09:01:59;;;;;;;3.38;0.70;;;18.70;62.10;;;;;;6097403;23;20602;-80
2023/11/09 09:04:28;;;;;;;2.10;0.50;;;18.70;62.00;;;;;;6199660;23;20215;-81
2023/11/09 09:06:55;;;;;;;3.50;0.80;;;18.70;62.20;;;;;;6149427;23;20153;-82
2023/11/09 09:09:24;;;;;;;6.60;0.85;;;18.70;62.00;;;;;;6181023;23;20532;-82
2023/11/09 09:11:56;;;;;;;6.20;0.90;;;18.70;62.60;;;;;;6184226;23;20140;-81
2023/11/09 09:14:30;;;;;;;12.95;1.20;;;18.70;62.20;;;;;;6160610;23;20157;-82
2023/11/09 09:16:56;;;;;;;6.85;1.48;;;18.70;62.40;;;;;;6134169;23;20187;-82
2023/11/09 09:19:25;;;;;;;9.05;1.10;;;18.70;62.90;;;;;;6180199;23;20580;-82
2023/11/09 09:21:51;;;;;;;6.45;1.17;;;18.70;62.70;;;;;;6129917;23;20259;-82
2023/11/09 09:24:21;;;;;;;4.97;1.00;;;18.70;62.10;;;;;;6201437;23;20189;-80
2023/11/09 09:27:00;;;;;;;7.57;0.80;;;18.70;62.40;;;;;;6203447;23;20297;-84
2023/11/09 09:29:31;;;;;;;5.60;0.98;;;18.60;62.30;;;;;;6149854;23;20157;-82
2023/11/09 09:31:58;;;;;;;2.70;0.80;;;18.70;62.30;;;;;;6130858;23;20168;-81
2023/11/09 09:34:29;;;;;;;3.50;0.73;;;18.70;62.90;;;;;;6153793;23;20153;-82
2023/11/09 09:36:58;;;;;;;4.85;0.80;;;18.70;63.90;;;;;;6177126;23;20183;-82
2023/11/09 09:39:25;;;;;;;2.92;0.80;;;18.60;63.10;;;;;;6104446;23;20129;-81
2023/11/09 09:41:51;;;;;;;4.68;0.70;;;18.60;62.80;;;;;;6157041;23;20156;-81
2023/11/09 09:44:18;;;;;;;2.45;0.80;;;18.60;62.40;;;;;;6181836;23;20231;-81
2023/11/09 09:46:49;;;;;;;1.83;0.70;;;18.60;62.00;;;;;;6174096;23;20219;-80
2023/11/09 09:49:36;;;;;;;5.93;0.60;;;18.70;61.80;;;;;;6142400;23;20212;-84
2023/11/09 09:52:04;;;;;;;3.05;0.80;;;18.70;62.60;;;;;;6168899;23;20150;-85
2023/11/09 09:54:30;;;;;;;3.83;0.55;;;18.60;61.80;;;;;;6195815;23;20154;-81
2023/11/09 09:56:55;;;;;;;3.10;0.75;;;18.70;62.20;;;;;;6192577;23;20533;-80
2023/11/09 09:59:22;;;;;;;2.67;0.73;;;18.70;61.80;;;;;;6166633;23;20146;-82
2023/11/09 10:01:48;;;;;;;3.30;0.75;;;18.80;61.80;;;;;;6189429;23;20556;-81
2023/11/09 10:04:14;;;;;;;4.45;0.80;;;18.90;61.50;;;;;;6187790;23;20146;-80
2023/11/09 10:06:45;;;;;;;1.75;0.50;;;18.90;61.90;;;;;;6187683;23;20161;-81
2023/11/09 10:09:11;;;;;;;1.75;0.70;;;18.80;62.00;;;;;;6187341;23;20174;-83
2023/11/09 10:11:38;;;;;;;2.20;0.45;;;18.80;62.30;;;;;;6186553;23;20158;-84
2023/11/09 10:14:11;;;;;;;1.42;0.60;;;18.80;62.00;;;;;;6186185;23;20155;-80
2023/11/09 10:16:41;;;;;;;4.18;0.52;;;18.80;62.30;;;;;;6160174;23;20229;-85
2023/11/09 10:19:07;;;;;;;1.83;0.60;;;18.70;63.50;;;;;;6135229;23;20246;-81
2023/11/09 10:21:34;;;;;;;4.15;0.80;;;18.70;62.30;;;;;;6198245;23;20136;-83
2023/11/09 10:24:00;;;;;;;6.07;1.10;;;18.80;62.10;;;;;;6094946;23;20136;-80
2023/11/09 10:26:40;;;;;;;17.58;1.40;;;18.80;62.20;;;;;;6146805;23;20156;-84
2023/11/09 10:29:07;;;;;;;15.07;1.33;;;18.70;62.60;;;;;;6171009;23;20152;-81
2023/11/09 10:31:32;;;;;;;10.77;1.38;;;18.70;63.30;;;;;;6095145;23;20138;-82
2023/11/09 10:33:58;;;;;;;10.88;1.20;;;18.70;61.70;;;;;;6169770;23;20160;-83
2023/11/09 10:36:24;;;;;;;7.68;0.77;;;18.80;62.10;;;;;;6094225;23;20165;-82
2023/11/09 10:38:49;;;;;;;5.85;0.77;;;18.80;62.00;;;;;;6169998;23;20153;-83
2023/11/09 10:41:17;;;;;;;7.10;0.70;;;18.80;62.20;;;;;;6193722;23;20143;-83
2023/11/09 10:43:43;;;;;;;8.05;1.02;;;18.80;61.60;;;;;;6192603;23;20140;-81
2023/11/09 10:46:09;;;;;;;7.00;0.88;;;18.90;61.70;;;;;;6169132;23;20184;-84
2023/11/09 10:48:40;;;;;;;4.60;0.70;;;18.90;62.00;;;;;;6093309;23;20137;-83
2023/11/09 10:51:09;;;;;;;3.25;0.65;;;18.80;61.80;;;;;;6191801;23;20203;-82
2023/11/09 10:53:37;;;;;;;2.88;0.65;;;18.80;61.80;;;;;;6093350;23;20220;-80
2023/11/09 10:56:09;;;;;;;3.45;0.60;;;18.80;61.80;;;;;;6171101;23;20204;-83
2023/11/09 10:58:40;;;;;;;5.38;0.93;;;18.90;61.80;;;;;;6170723;23;20151;-83
2023/11/09 11:01:06;;;;;;;1.77;0.57;;;18.90;62.30;;;;;;6190767;23;20143;-82
2023/11/09 11:03:37;;;;;;;3.70;0.70;;;18.80;61.60;;;;;;6194604;23;20520;-80
2023/11/09 11:06:12;;;;;;;2.85;0.80;;;18.90;61.60;;;;;;6193515;23;20181;-83
2023/11/09 11:08:41;;;;;;;1.17;0.77;;;18.90;62.10;;;;;;6093881;23;20132;-83
2023/11/09 11:11:14;;;;;;;1.60;0.50;;;18.80;62.10;;;;;;6144805;23;20498;-81
2023/11/09 11:13:43;;;;;;;1.00;0.73;;;18.90;61.90;;;;;;6168546;23;20220;-82
2023/11/09 11:16:32;;;;;;;2.20;0.50;;;18.90;62.10;;;;;;6190801;23;20164;-83
2023/11/09 11:19:27;;;;;;;2.05;0.43;;;18.90;61.90;;;;;;6093065;23;20595;-81
2023/11/09 11:22:27;;;;;;;3.03;0.52;;;18.80;62.10;;;;;;6102788;23;20160;-81
2023/11/09 11:25:14;;;;;;;1.48;0.40;;;18.80;61.80;;;;;;6093280;23;20199;-82
2023/11/09 11:28:00;;;;;;;1.48;0.43;;;18.80;61.90;;;;;;6092566;23;20498;-79
2023/11/09 11:30:35;;;;;;;3.47;0.55;;;18.80;61.70;;;;;;6167503;23;20163;-81
2023/11/09 11:33:04;;;;;;;2.97;0.60;;;18.80;62.10;;;;;;6092858;23;20590;-82
2023/11/09 11:35:36;;;;;;;1.52;0.57;;;18.90;61.60;;;;;;6167210;23;20143;-80
2023/11/09 11:38:17;;;;;;;1.45;0.60;;;18.90;61.70;;;;;;6190059;23;20165;-79
2023/11/09 11:40:44;;;;;;;3.08;0.73;;;18.90;61.60;;;;;;6194520;23;20133;-80
2023/11/09 11:43:11;;;;;;;3.80;0.60;;;18.90;61.70;;;;;;6193970;23;20563;-81
2023/11/09 11:45:38;;;;;;;2.25;0.85;;;18.90;61.80;;;;;;6193188;23;20517;-80
2023/11/09 11:48:12;;;;;;;1.90;0.50;;;18.90;61.80;;;;;;6193840;23;20141;-81
2023/11/09 11:50:39;;;;;;;2.28;0.70;;;18.90;61.00;;;;;;6094597;23;20219;-81
2023/11/09 11:53:28;;;;;;;1.33;0.50;;;19.00;60.90;;;;;;6193955;23;20224;-81
2023/11/09 11:56:13;;;;;;;1.30;0.47;;;18.90;61.80;;;;;;6126884;23;20665;-80
2023/11/09 11:58:54;;;;;;;4.05;0.60;;;18.90;60.80;;;;;;6144150;23;20255;-80
2023/11/09 12:01:22;;;;;;;2.58;0.50;;;18.90;61.50;;;;;;6166334;23;20152;-80
2023/11/09 12:03:58;;;;;;;1.15;0.50;;;19.00;61.10;;;;;;6169973;23;20233;-80
2023/11/09 12:06:41;;;;;;;0.80;0.60;;;18.90;61.60;;;;;;6167070;23;20160;-80
2023/11/09 12:09:15;;;;;;;1.13;0.40;;;18.90;61.30;;;;;;6098394;23;20165;-80
2023/11/09 12:11:50;;;;;;;3.42;0.50;;;18.90;61.30;;;;;;6143805;23;20208;-80
2023/11/09 12:14:25;;;;;;;1.15;0.40;;;18.90;61.60;;;;;;6167085;23;20206;-79
2023/11/09 12:16:51;;;;;;;2.17;0.60;;;18.90;61.50;;;;;;6117865;23;20184;-80
2023/11/09 12:19:22;;;;;;;2.05;0.60;;;18.90;61.60;;;;;;6193064;23;20144;-80
2023/11/09 12:21:51;;;;;;;0.43;0.40;;;18.90;61.90;;;;;;6166515;23;20153;-82
2023/11/09 12:24:21;;;;;;;1.80;0.57;;;18.80;61.80;;;;;;6190911;23;20294;-82
2023/11/09 12:26:47;;;;;;;1.85;0.60;;;18.80;62.10;;;;;;6193224;23;20578;-81
2023/11/09 12:29:15;;;;;;;0.50;0.43;;;18.80;61.80;;;;;;6193375;23;20156;-81
2023/11/09 12:31:41;;;;;;;0.47;0.40;;;18.90;61.40;;;;;;6092716;23;20141;-82
2023/11/09 12:34:10;;;;;;;3.08;0.50;;;18.90;61.50;;;;;;6194619;23;20148;-79
2023/11/09 12:36:39;;;;;;;1.20;0.50;;;18.90;61.50;;;;;;6193566;23;20180;-82
2023/11/09 12:39:23;;;;;;;0.80;0.40;;;18.90;61.20;;;;;;6132299;23;20595;-80
2023/11/09 12:41:58;;;;;;;1.80;0.45;;;18.90;61.10;;;;;;6129322;23;20167;-81
2023/11/09 12:44:25;;;;;;;1.27;0.40;;;18.90;61.60;;;;;;6129454;23;20233;-81
2023/11/09 12:46:55;;;;;;;0.57;0.40;;;18.90;61.60;;;;;;6154862;23;20135;-80
2023/11/09 12:49:23;;;;;;;0.95;0.43;;;18.90;61.80;;;;;;6106421;23;20191;-80
2023/11/09 12:51:50;;;;;;;0.93;0.40;;;18.90;61.60;;;;;;6158911;23;20143;-80
2023/11/09 12:54:18;;;;;;;1.13;0.35;;;19.00;61.60;;;;;;6106625;23;20151;-78
2023/11/09 12:56:46;;;;;;;5.88;0.60;;;18.90;61.80;;;;;;6105619;23;20718;-78
2023/11/09 12:59:14;;;;;;;0.93;0.40;;;18.90;61.90;;;;;;6129977;23;20155;-80
2023/11/09 13:01:43;;;;;;;1.30;0.43;;;18.90;61.90;;;;;;6131771;23;20151;-79
2023/11/09 13:04:21;;;;;;;1.52;0.50;;;18.80;62.20;;;;;;6156207;23;20175;-79
2023/11/09 13:06:50;;;;;;;0.57;0.40;;;18.80;61.70;;;;;;6133814;23;20147;-80